sensor_id;sensor_type;location;lat;lon;timestamp;temperature;humidity
35381;DHT22;21486;51.916;8.378;2023-03-14T00:02:16;11.80;85.20
35381;DHT22;21486;51.916;8.378;2023-03-14T00:04:42;11.70;85.20
35381;DHT22;21486;51.916;8.378;2023-03-14T00:07:09;11.70;85.40
35381;DHT22;21486;51.916;8.378;2023-03-14T00:09:35;11.70;85.50
35381;DHT22;21486;51.916;8.378;2023-03-14T00:12:00;11.60;85.50
35381;DHT22;21486;51.916;8.378;2023-03-14T00:14:28;11.70;85.50
35381;DHT22;21486;51.916;8.378;2023-03-14T00:16:54;11.60;85.60
35381;DHT22;21486;51.916;8.378;2023-03-14T00:19:20;11.60;85.70
35381;DHT22;21486;51.916;8.378;2023-03-14T00:21:46;11.50;86.00
35381;DHT22;21486;51.916;8.378;2023-03-14T00:24:11;11.40;86.30
35381;DHT22;21486;51.916;8.378;2023-03-14T00:26:37;11.40;86.20
35381;DHT22;21486;51.916;8.378;2023-03-14T00:29:02;11.40;86.20
35381;DHT22;21486;51.916;8.378;2023-03-14T00:31:28;11.40;86.50
35381;DHT22;21486;51.916;8.378;2023-03-14T00:33:54;11.30;86.90
35381;DHT22;21486;51.916;8.378;2023-03-14T00:36:20;11.30;86.90
35381;DHT22;21486;51.916;8.378;2023-03-14T00:38:48;11.20;86.90
35381;DHT22;21486;51.916;8.378;2023-03-14T00:41:16;11.20;87.00
35381;DHT22;21486;51.916;8.378;2023-03-14T00:43:42;11.30;86.70
35381;DHT22;21486;51.916;8.378;2023-03-14T00:46:08;11.30;87.00
35381;DHT22;21486;51.916;8.378;2023-03-14T00:48:34;11.30;86.80
35381;DHT22;21486;51.916;8.378;2023-03-14T00:51:00;11.40;86.50
35381;DHT22;21486;51.916;8.378;2023-03-14T00:53:26;11.40;86.40
35381;DHT22;21486;51.916;8.378;2023-03-14T00:55:51;11.50;86.30
35381;DHT22;21486;51.916;8.378;2023-03-14T00:58:18;11.50;86.00
35381;DHT22;21486;51.916;8.378;2023-03-14T01:00:44;11.40;85.80
35381;DHT22;21486;51.916;8.378;2023-03-14T01:03:11;11.50;85.50
35381;DHT22;21486;51.916;8.378;2023-03-14T01:05:37;11.60;85.50
35381;DHT22;21486;51.916;8.378;2023-03-14T01:08:04;11.60;85.10
35381;DHT22;21486;51.916;8.378;2023-03-14T01:10:30;11.60;85.30
35381;DHT22;21486;51.916;8.378;2023-03-14T01:12:55;11.70;84.50
35381;DHT22;21486;51.916;8.378;2023-03-14T01:15:21;11.70;84.20
35381;DHT22;21486;51.916;8.378;2023-03-14T01:17:47;11.60;84.20
35381;DHT22;21486;51.916;8.378;2023-03-14T01:20:14;11.60;84.70
35381;DHT22;21486;51.916;8.378;2023-03-14T01:22:40;11.70;84.50
35381;DHT22;21486;51.916;8.378;2023-03-14T01:25:08;11.80;84.10
35381;DHT22;21486;51.916;8.378;2023-03-14T01:27:34;11.70;83.90
35381;DHT22;21486;51.916;8.378;2023-03-14T01:30:00;11.70;84.00
35381;DHT22;21486;51.916;8.378;2023-03-14T01:33:02;11.60;83.10
35381;DHT22;21486;51.916;8.378;2023-03-14T01:35:27;11.70;83.40
35381;DHT22;21486;51.916;8.378;2023-03-14T01:37:53;11.70;83.40
35381;DHT22;21486;51.916;8.378;2023-03-14T01:40:18;11.70;83.40
35381;DHT22;21486;51.916;8.378;2023-03-14T01:42:57;11.70;83.70
35381;DHT22;21486;51.916;8.378;2023-03-14T01:48:30;11.70;83.20
35381;DHT22;21486;51.916;8.378;2023-03-14T01:50:58;11.70;83.10
35381;DHT22;21486;51.916;8.378;2023-03-14T01:53:24;11.70;82.90
35381;DHT22;21486;51.916;8.378;2023-03-14T01:55:52;11.70;82.90
35381;DHT22;21486;51.916;8.378;2023-03-14T01:58:21;11.80;82.90
35381;DHT22;21486;51.916;8.378;2023-03-14T02:00:48;11.80;82.60
35381;DHT22;21486;51.916;8.378;2023-03-14T02:03:17;11.80;82.60
35381;DHT22;21486;51.916;8.378;2023-03-14T02:05:44;11.80;82.50
35381;DHT22;21486;51.916;8.378;2023-03-14T02:08:14;11.80;82.00
35381;DHT22;21486;51.916;8.378;2023-03-14T02:10:43;11.80;82.40
35381;DHT22;21486;51.916;8.378;2023-03-14T02:13:10;11.80;82.60
35381;DHT22;21486;51.916;8.378;2023-03-14T02:15:37;11.80;82.10
35381;DHT22;21486;51.916;8.378;2023-03-14T02:18:04;11.80;85.90
35381;DHT22;21486;51.916;8.378;2023-03-14T02:23:15;11.10;92.00
35381;DHT22;21486;51.916;8.378;2023-03-14T02:25:56;10.50;94.40
35381;DHT22;21486;51.916;8.378;2023-03-14T02:28:23;10.00;97.20
35381;DHT22;21486;51.916;8.378;2023-03-14T02:30:49;9.50;98.20
35381;DHT22;21486;51.916;8.378;2023-03-14T02:33:17;9.50;99.50
35381;DHT22;21486;51.916;8.378;2023-03-14T02:35:56;9.30;99.50
35381;DHT22;21486;51.916;8.378;2023-03-14T02:41:15;9.30;99.90
35381;DHT22;21486;51.916;8.378;2023-03-14T02:43:41;9.30;99.90
35381;DHT22;21486;51.916;8.378;2023-03-14T02:46:14;9.20;99.90
35381;DHT22;21486;51.916;8.378;2023-03-14T02:49:14;9.20;99.90
35381;DHT22;21486;51.916;8.378;2023-03-14T02:51:41;9.20;99.90
35381;DHT22;21486;51.916;8.378;2023-03-14T02:54:08;9.20;99.90
35381;DHT22;21486;51.916;8.378;2023-03-14T02:56:34;9.10;99.90
35381;DHT22;21486;51.916;8.378;2023-03-14T02:59:05;9.20;99.90
35381;DHT22;21486;51.916;8.378;2023-03-14T03:01:31;9.20;99.90
35381;DHT22;21486;51.916;8.378;2023-03-14T03:03:56;9.20;99.90
35381;DHT22;21486;51.916;8.378;2023-03-14T03:06:22;9.10;99.90
35381;DHT22;21486;51.916;8.378;2023-03-14T03:08:47;9.10;99.90
35381;DHT22;21486;51.916;8.378;2023-03-14T03:11:13;9.10;99.90
35381;DHT22;21486;51.916;8.378;2023-03-14T03:13:38;9.10;99.90
35381;DHT22;21486;51.916;8.378;2023-03-14T03:16:04;9.10;99.90
35381;DHT22;21486;51.916;8.378;2023-03-14T03:18:30;9.10;99.90
35381;DHT22;21486;51.916;8.378;2023-03-14T03:21:02;9.10;99.90
35381;DHT22;21486;51.916;8.378;2023-03-14T03:23:28;9.00;99.90
35381;DHT22;21486;51.916;8.378;2023-03-14T03:25:54;8.90;99.90
35381;DHT22;21486;51.916;8.378;2023-03-14T03:28:20;8.90;99.90
35381;DHT22;21486;51.916;8.378;2023-03-14T03:30:45;9.00;99.90
35381;DHT22;21486;51.916;8.378;2023-03-14T03:33:11;9.00;99.90
35381;DHT22;21486;51.916;8.378;2023-03-14T03:35:48;9.00;99.90
35381;DHT22;21486;51.916;8.378;2023-03-14T03:38:14;9.00;99.90
35381;DHT22;21486;51.916;8.378;2023-03-14T03:40:40;9.00;99.90
35381;DHT22;21486;51.916;8.378;2023-03-14T03:43:06;8.90;99.90
35381;DHT22;21486;51.916;8.378;2023-03-14T03:45:32;9.00;99.80
35381;DHT22;21486;51.916;8.378;2023-03-14T03:47:57;9.00;99.60
35381;DHT22;21486;51.916;8.378;2023-03-14T03:50:23;9.20;99.60
35381;DHT22;21486;51.916;8.378;2023-03-14T03:52:48;9.10;99.70
35381;DHT22;21486;51.916;8.378;2023-03-14T03:55:14;9.10;99.90
35381;DHT22;21486;51.916;8.378;2023-03-14T03:57:39;9.20;99.70
35381;DHT22;21486;51.916;8.378;2023-03-14T04:00:06;9.20;99.80
35381;DHT22;21486;51.916;8.378;2023-03-14T04:02:32;9.30;99.90
35381;DHT22;21486;51.916;8.378;2023-03-14T04:04:58;9.20;99.90
35381;DHT22;21486;51.916;8.378;2023-03-14T04:07:23;9.20;99.90
35381;DHT22;21486;51.916;8.378;2023-03-14T04:09:49;9.20;99.90
35381;DHT22;21486;51.916;8.378;2023-03-14T04:12:14;9.20;99.90
35381;DHT22;21486;51.916;8.378;2023-03-14T04:14:40;9.20;99.90
35381;DHT22;21486;51.916;8.378;2023-03-14T04:17:06;9.20;99.90
35381;DHT22;21486;51.916;8.378;2023-03-14T04:19:32;9.20;99.90
35381;DHT22;21486;51.916;8.378;2023-03-14T04:21:57;9.10;99.90
35381;DHT22;21486;51.916;8.378;2023-03-14T04:24:23;9.10;99.90
35381;DHT22;21486;51.916;8.378;2023-03-14T04:26:48;9.10;99.90
35381;DHT22;21486;51.916;8.378;2023-03-14T04:29:14;9.00;99.90
35381;DHT22;21486;51.916;8.378;2023-03-14T04:31:40;9.00;99.90
35381;DHT22;21486;51.916;8.378;2023-03-14T04:34:05;9.00;99.90
35381;DHT22;21486;51.916;8.378;2023-03-14T04:36:31;9.00;99.90
35381;DHT22;21486;51.916;8.378;2023-03-14T04:38:56;9.00;99.90
35381;DHT22;21486;51.916;8.378;2023-03-14T04:41:22;8.90;99.90
35381;DHT22;21486;51.916;8.378;2023-03-14T04:43:48;9.00;99.90
35381;DHT22;21486;51.916;8.378;2023-03-14T04:46:13;8.90;99.90
35381;DHT22;21486;51.916;8.378;2023-03-14T04:48:39;9.00;99.90
35381;DHT22;21486;51.916;8.378;2023-03-14T04:51:05;9.00;99.90
35381;DHT22;21486;51.916;8.378;2023-03-14T04:53:30;9.00;99.90
35381;DHT22;21486;51.916;8.378;2023-03-14T04:55:56;9.00;99.90
35381;DHT22;21486;51.916;8.378;2023-03-14T04:58:22;8.90;99.90
35381;DHT22;21486;51.916;8.378;2023-03-14T05:00:50;8.90;99.90
35381;DHT22;21486;51.916;8.378;2023-03-14T05:03:16;8.90;99.90
35381;DHT22;21486;51.916;8.378;2023-03-14T05:05:43;8.90;99.90
35381;DHT22;21486;51.916;8.378;2023-03-14T05:08:09;9.00;99.90
35381;DHT22;21486;51.916;8.378;2023-03-14T05:10:34;9.10;99.90
35381;DHT22;21486;51.916;8.378;2023-03-14T05:13:00;9.00;99.90
35381;DHT22;21486;51.916;8.378;2023-03-14T05:15:25;9.10;99.90
35381;DHT22;21486;51.916;8.378;2023-03-14T05:17:51;9.10;99.90
35381;DHT22;21486;51.916;8.378;2023-03-14T05:20:17;9.00;99.90
35381;DHT22;21486;51.916;8.378;2023-03-14T05:22:42;9.10;99.90
35381;DHT22;21486;51.916;8.378;2023-03-14T05:25:09;9.10;99.90
35381;DHT22;21486;51.916;8.378;2023-03-14T05:27:35;9.10;99.90
35381;DHT22;21486;51.916;8.378;2023-03-14T05:30:01;9.20;99.90
35381;DHT22;21486;51.916;8.378;2023-03-14T05:32:28;9.30;99.90
35381;DHT22;21486;51.916;8.378;2023-03-14T05:34:53;9.30;99.50
35381;DHT22;21486;51.916;8.378;2023-03-14T05:37:23;9.40;99.00
35381;DHT22;21486;51.916;8.378;2023-03-14T05:39:49;9.30;99.30
35381;DHT22;21486;51.916;8.378;2023-03-14T05:42:14;9.40;99.50
35381;DHT22;21486;51.916;8.378;2023-03-14T05:44:40;9.30;99.50
35381;DHT22;21486;51.916;8.378;2023-03-14T05:47:05;9.30;99.30
35381;DHT22;21486;51.916;8.378;2023-03-14T05:49:31;9.30;99.20
35381;DHT22;21486;51.916;8.378;2023-03-14T05:51:56;9.30;99.40
35381;DHT22;21486;51.916;8.378;2023-03-14T05:54:22;9.20;99.30
35381;DHT22;21486;51.916;8.378;2023-03-14T05:56:47;9.20;99.80
35381;DHT22;21486;51.916;8.378;2023-03-14T05:59:13;9.10;99.90
35381;DHT22;21486;51.916;8.378;2023-03-14T06:01:40;9.00;99.90
35381;DHT22;21486;51.916;8.378;2023-03-14T06:04:05;8.90;99.90
35381;DHT22;21486;51.916;8.378;2023-03-14T06:06:31;8.80;99.90
35381;DHT22;21486;51.916;8.378;2023-03-14T06:08:56;8.80;99.90
35381;DHT22;21486;51.916;8.378;2023-03-14T06:11:25;8.70;99.90
35381;DHT22;21486;51.916;8.378;2023-03-14T06:13:51;8.80;99.90
35381;DHT22;21486;51.916;8.378;2023-03-14T06:16:17;8.80;99.90
35381;DHT22;21486;51.916;8.378;2023-03-14T06:18:42;8.80;99.90
35381;DHT22;21486;51.916;8.378;2023-03-14T06:21:08;8.70;99.90
35381;DHT22;21486;51.916;8.378;2023-03-14T06:23:34;8.70;99.90
35381;DHT22;21486;51.916;8.378;2023-03-14T06:25:59;8.70;99.90
35381;DHT22;21486;51.916;8.378;2023-03-14T06:28:25;8.60;99.90
35381;DHT22;21486;51.916;8.378;2023-03-14T06:30:51;8.50;99.90
35381;DHT22;21486;51.916;8.378;2023-03-14T06:33:16;8.50;99.90
35381;DHT22;21486;51.916;8.378;2023-03-14T06:35:42;8.50;99.90
35381;DHT22;21486;51.916;8.378;2023-03-14T06:38:07;8.50;99.90
35381;DHT22;21486;51.916;8.378;2023-03-14T06:40:33;8.50;99.90
35381;DHT22;21486;51.916;8.378;2023-03-14T06:42:58;8.60;99.90
35381;DHT22;21486;51.916;8.378;2023-03-14T06:45:24;8.70;99.90
35381;DHT22;21486;51.916;8.378;2023-03-14T06:47:49;8.70;99.90
35381;DHT22;21486;51.916;8.378;2023-03-14T06:50:15;8.60;99.90
35381;DHT22;21486;51.916;8.378;2023-03-14T06:52:40;8.60;99.90
35381;DHT22;21486;51.916;8.378;2023-03-14T06:55:11;8.60;99.90
35381;DHT22;21486;51.916;8.378;2023-03-14T06:57:36;8.60;99.90
35381;DHT22;21486;51.916;8.378;2023-03-14T07:00:03;8.60;99.90
35381;DHT22;21486;51.916;8.378;2023-03-14T07:02:30;8.60;99.90
35381;DHT22;21486;51.916;8.378;2023-03-14T07:04:55;8.60;99.90
35381;DHT22;21486;51.916;8.378;2023-03-14T07:07:21;8.50;99.90
35381;DHT22;21486;51.916;8.378;2023-03-14T07:09:46;8.60;99.90
35381;DHT22;21486;51.916;8.378;2023-03-14T07:12:12;8.60;99.90
35381;DHT22;21486;51.916;8.378;2023-03-14T07:14:37;8.50;99.90
35381;DHT22;21486;51.916;8.378;2023-03-14T07:17:03;8.50;99.90
35381;DHT22;21486;51.916;8.378;2023-03-14T07:19:29;8.50;99.90
35381;DHT22;21486;51.916;8.378;2023-03-14T07:21:54;8.60;99.90
35381;DHT22;21486;51.916;8.378;2023-03-14T07:24:20;8.70;99.90
35381;DHT22;21486;51.916;8.378;2023-03-14T07:26:45;8.80;99.90
35381;DHT22;21486;51.916;8.378;2023-03-14T07:29:11;8.90;99.90
35381;DHT22;21486;51.916;8.378;2023-03-14T07:31:36;9.00;99.90
35381;DHT22;21486;51.916;8.378;2023-03-14T07:34:02;9.10;99.90
35381;DHT22;21486;51.916;8.378;2023-03-14T07:36:28;9.10;99.90
35381;DHT22;21486;51.916;8.378;2023-03-14T07:38:53;9.10;99.90
35381;DHT22;21486;51.916;8.378;2023-03-14T07:41:19;9.00;99.90
35381;DHT22;21486;51.916;8.378;2023-03-14T07:43:46;9.10;99.90
35381;DHT22;21486;51.916;8.378;2023-03-14T07:46:11;9.00;99.90
35381;DHT22;21486;51.916;8.378;2023-03-14T07:48:37;9.10;99.90
35381;DHT22;21486;51.916;8.378;2023-03-14T07:51:03;9.10;99.90
35381;DHT22;21486;51.916;8.378;2023-03-14T07:53:28;9.20;99.90
35381;DHT22;21486;51.916;8.378;2023-03-14T07:55:54;9.30;99.90
35381;DHT22;21486;51.916;8.378;2023-03-14T07:58:20;9.20;99.90
35381;DHT22;21486;51.916;8.378;2023-03-14T08:00:47;9.20;99.90
35381;DHT22;21486;51.916;8.378;2023-03-14T08:03:13;9.30;99.90
35381;DHT22;21486;51.916;8.378;2023-03-14T08:05:38;9.40;99.90
35381;DHT22;21486;51.916;8.378;2023-03-14T08:08:05;9.40;99.90
35381;DHT22;21486;51.916;8.378;2023-03-14T08:10:31;9.50;99.90
35381;DHT22;21486;51.916;8.378;2023-03-14T08:12:58;9.50;99.90
35381;DHT22;21486;51.916;8.378;2023-03-14T08:15:24;9.70;99.90
35381;DHT22;21486;51.916;8.378;2023-03-14T08:17:50;9.70;99.90
35381;DHT22;21486;51.916;8.378;2023-03-14T08:20:24;9.70;99.90
35381;DHT22;21486;51.916;8.378;2023-03-14T08:22:50;9.80;99.90
35381;DHT22;21486;51.916;8.378;2023-03-14T08:25:16;9.90;99.90
35381;DHT22;21486;51.916;8.378;2023-03-14T08:27:42;9.90;99.90
35381;DHT22;21486;51.916;8.378;2023-03-14T08:30:10;10.00;99.90
35381;DHT22;21486;51.916;8.378;2023-03-14T08:32:36;10.00;99.90
35381;DHT22;21486;51.916;8.378;2023-03-14T08:35:03;9.90;99.90
35381;DHT22;21486;51.916;8.378;2023-03-14T08:37:30;9.90;99.90
35381;DHT22;21486;51.916;8.378;2023-03-14T08:39:56;9.90;99.90
35381;DHT22;21486;51.916;8.378;2023-03-14T08:42:21;9.80;99.90
35381;DHT22;21486;51.916;8.378;2023-03-14T08:44:47;9.90;99.90
35381;DHT22;21486;51.916;8.378;2023-03-14T08:47:12;10.00;99.90
35381;DHT22;21486;51.916;8.378;2023-03-14T08:49:38;10.20;99.90
35381;DHT22;21486;51.916;8.378;2023-03-14T08:52:04;10.20;99.90
35381;DHT22;21486;51.916;8.378;2023-03-14T08:54:31;10.10;99.90
35381;DHT22;21486;51.916;8.378;2023-03-14T08:56:57;10.30;99.90
35381;DHT22;21486;51.916;8.378;2023-03-14T08:59:23;10.40;99.90
35381;DHT22;21486;51.916;8.378;2023-03-14T09:01:49;10.50;99.90
35381;DHT22;21486;51.916;8.378;2023-03-14T09:04:15;10.50;99.90
35381;DHT22;21486;51.916;8.378;2023-03-14T09:06:40;10.60;99.90
35381;DHT22;21486;51.916;8.378;2023-03-14T09:09:06;10.60;99.90
35381;DHT22;21486;51.916;8.378;2023-03-14T09:11:32;10.80;99.90
35381;DHT22;21486;51.916;8.378;2023-03-14T09:13:58;10.90;99.80
35381;DHT22;21486;51.916;8.378;2023-03-14T09:16:23;10.90;98.60
35381;DHT22;21486;51.916;8.378;2023-03-14T09:18:49;11.00;98.90
35381;DHT22;21486;51.916;8.378;2023-03-14T09:21:14;10.90;99.50
35381;DHT22;21486;51.916;8.378;2023-03-14T09:23:41;11.00;99.20
35381;DHT22;21486;51.916;8.378;2023-03-14T09:26:07;11.00;98.80
35381;DHT22;21486;51.916;8.378;2023-03-14T09:28:32;11.00;98.50
35381;DHT22;21486;51.916;8.378;2023-03-14T09:30:58;11.00;98.60
35381;DHT22;21486;51.916;8.378;2023-03-14T09:33:30;11.00;99.00
35381;DHT22;21486;51.916;8.378;2023-03-14T09:35:58;10.80;99.50
35381;DHT22;21486;51.916;8.378;2023-03-14T09:38:24;10.70;99.90
35381;DHT22;21486;51.916;8.378;2023-03-14T09:40:50;10.60;99.90
35381;DHT22;21486;51.916;8.378;2023-03-14T09:43:16;10.50;99.90
35381;DHT22;21486;51.916;8.378;2023-03-14T09:45:43;10.60;99.90
35381;DHT22;21486;51.916;8.378;2023-03-14T09:48:22;10.80;99.90
35381;DHT22;21486;51.916;8.378;2023-03-14T09:50:51;10.90;99.90
35381;DHT22;21486;51.916;8.378;2023-03-14T09:53:21;11.00;99.90
35381;DHT22;21486;51.916;8.378;2023-03-14T09:55:50;11.00;99.70
35381;DHT22;21486;51.916;8.378;2023-03-14T09:58:19;11.10;99.80
35381;DHT22;21486;51.916;8.378;2023-03-14T10:00:45;11.20;99.90
35381;DHT22;21486;51.916;8.378;2023-03-14T10:05:42;11.10;99.90
35381;DHT22;21486;51.916;8.378;2023-03-14T10:08:11;11.10;99.90
35381;DHT22;21486;51.916;8.378;2023-03-14T10:10:36;10.80;99.90
35381;DHT22;21486;51.916;8.378;2023-03-14T10:13:17;10.70;99.90
35381;DHT22;21486;51.916;8.378;2023-03-14T10:16:12;10.50;99.90
35381;DHT22;21486;51.916;8.378;2023-03-14T10:18:37;10.50;99.90
35381;DHT22;21486;51.916;8.378;2023-03-14T10:23:30;10.60;99.90
35381;DHT22;21486;51.916;8.378;2023-03-14T10:26:15;10.50;99.90
35381;DHT22;21486;51.916;8.378;2023-03-14T10:28:47;10.60;99.90
35381;DHT22;21486;51.916;8.378;2023-03-14T10:31:14;10.70;99.90
35381;DHT22;21486;51.916;8.378;2023-03-14T10:33:40;10.70;99.90
35381;DHT22;21486;51.916;8.378;2023-03-14T10:36:19;10.60;99.90
35381;DHT22;21486;51.916;8.378;2023-03-14T10:38:46;10.60;99.90
35381;DHT22;21486;51.916;8.378;2023-03-14T10:41:24;10.10;99.90
35381;DHT22;21486;51.916;8.378;2023-03-14T10:43:53;9.50;99.90
35381;DHT22;21486;51.916;8.378;2023-03-14T10:46:19;9.00;99.90
35381;DHT22;21486;51.916;8.378;2023-03-14T10:48:45;8.60;99.90
35381;DHT22;21486;51.916;8.378;2023-03-14T10:51:19;8.20;99.90
35381;DHT22;21486;51.916;8.378;2023-03-14T10:56:25;8.10;99.90
35381;DHT22;21486;51.916;8.378;2023-03-14T10:58:53;8.20;99.90
35381;DHT22;21486;51.916;8.378;2023-03-14T11:01:41;8.10;99.90
35381;DHT22;21486;51.916;8.378;2023-03-14T11:04:38;8.10;99.90
35381;DHT22;21486;51.916;8.378;2023-03-14T11:07:27;8.00;99.90
35381;DHT22;21486;51.916;8.378;2023-03-14T11:15:02;8.00;99.90
35381;DHT22;21486;51.916;8.378;2023-03-14T11:26:32;7.50;99.90
35381;DHT22;21486;51.916;8.378;2023-03-14T11:29:08;7.40;99.90
35381;DHT22;21486;51.916;8.378;2023-03-14T11:31:39;7.30;99.90
35381;DHT22;21486;51.916;8.378;2023-03-14T11:37:00;7.10;99.90
35381;DHT22;21486;51.916;8.378;2023-03-14T11:39:35;7.00;99.90
35381;DHT22;21486;51.916;8.378;2023-03-14T11:42:01;6.60;98.60
35381;DHT22;21486;51.916;8.378;2023-03-14T11:44:34;6.50;99.30
35381;DHT22;21486;51.916;8.378;2023-03-14T11:47:12;6.40;99.80
35381;DHT22;21486;51.916;8.378;2023-03-14T11:49:47;6.30;98.70
35381;DHT22;21486;51.916;8.378;2023-03-14T11:53:11;6.10;98.20
35381;DHT22;21486;51.916;8.378;2023-03-14T11:55:24;6.10;98.70
35381;DHT22;21486;51.916;8.378;2023-03-14T11:57:51;6.00;98.50
35381;DHT22;21486;51.916;8.378;2023-03-14T12:00:19;6.10;99.40
35381;DHT22;21486;51.916;8.378;2023-03-14T12:03:17;6.10;98.30
35381;DHT22;21486;51.916;8.378;2023-03-14T12:05:59;6.20;95.90
35381;DHT22;21486;51.916;8.378;2023-03-14T12:11:17;6.50;94.00
35381;DHT22;21486;51.916;8.378;2023-03-14T12:13:50;6.60;94.00
35381;DHT22;21486;51.916;8.378;2023-03-14T12:16:36;6.60;92.10
35381;DHT22;21486;51.916;8.378;2023-03-14T12:21:52;6.50;92.30
35381;DHT22;21486;51.916;8.378;2023-03-14T12:24:22;6.60;91.50
35381;DHT22;21486;51.916;8.378;2023-03-14T12:26:56;6.70;90.70
35381;DHT22;21486;51.916;8.378;2023-03-14T12:29:22;6.90;91.00
35381;DHT22;21486;51.916;8.378;2023-03-14T12:34:28;7.30;87.90
35381;DHT22;21486;51.916;8.378;2023-03-14T12:39:45;7.40;89.50
35381;DHT22;21486;51.916;8.378;2023-03-14T12:42:38;7.50;86.10
35381;DHT22;21486;51.916;8.378;2023-03-14T12:45:22;7.50;85.50
35381;DHT22;21486;51.916;8.378;2023-03-14T12:48:10;7.30;88.70
35381;DHT22;21486;51.916;8.378;2023-03-14T12:51:00;7.50;86.70
35381;DHT22;21486;51.916;8.378;2023-03-14T13:04:44;7.90;85.20
35381;DHT22;21486;51.916;8.378;2023-03-14T13:07:13;7.60;86.50
35381;DHT22;21486;51.916;8.378;2023-03-14T13:12:38;7.30;89.00
35381;DHT22;21486;51.916;8.378;2023-03-14T13:16:09;7.50;89.80
35381;DHT22;21486;51.916;8.378;2023-03-14T13:18:36;7.30;89.00
35381;DHT22;21486;51.916;8.378;2023-03-14T13:21:07;7.00;91.00
35381;DHT22;21486;51.916;8.378;2023-03-14T13:23:36;6.80;92.80
35381;DHT22;21486;51.916;8.378;2023-03-14T13:26:03;6.60;92.80
35381;DHT22;21486;51.916;8.378;2023-03-14T13:28:30;6.40;92.90
35381;DHT22;21486;51.916;8.378;2023-03-14T13:31:01;6.40;93.10
35381;DHT22;21486;51.916;8.378;2023-03-14T13:33:27;6.60;92.20
35381;DHT22;21486;51.916;8.378;2023-03-14T13:36:02;6.70;90.70
35381;DHT22;21486;51.916;8.378;2023-03-14T13:38:31;6.80;91.60
35381;DHT22;21486;51.916;8.378;2023-03-14T13:40:59;6.90;90.70
35381;DHT22;21486;51.916;8.378;2023-03-14T13:43:32;7.00;90.70
35381;DHT22;21486;51.916;8.378;2023-03-14T13:46:05;7.00;90.50
35381;DHT22;21486;51.916;8.378;2023-03-14T13:48:34;6.90;90.10
35381;DHT22;21486;51.916;8.378;2023-03-14T13:51:05;6.90;90.70
35381;DHT22;21486;51.916;8.378;2023-03-14T13:53:32;7.10;89.20
35381;DHT22;21486;51.916;8.378;2023-03-14T13:56:09;7.30;88.20
35381;DHT22;21486;51.916;8.378;2023-03-14T13:58:37;7.50;88.10
35381;DHT22;21486;51.916;8.378;2023-03-14T14:01:32;7.50;86.70
35381;DHT22;21486;51.916;8.378;2023-03-14T14:04:13;7.70;85.60
35381;DHT22;21486;51.916;8.378;2023-03-14T14:07:07;7.80;85.70
35381;DHT22;21486;51.916;8.378;2023-03-14T14:09:39;8.00;81.70
35381;DHT22;21486;51.916;8.378;2023-03-14T14:12:08;7.90;80.10
35381;DHT22;21486;51.916;8.378;2023-03-14T14:14:41;8.00;80.10
35381;DHT22;21486;51.916;8.378;2023-03-14T14:17:11;8.10;79.70
35381;DHT22;21486;51.916;8.378;2023-03-14T14:19:39;8.10;78.50
35381;DHT22;21486;51.916;8.378;2023-03-14T14:22:05;8.20;77.30
35381;DHT22;21486;51.916;8.378;2023-03-14T14:24:34;8.20;79.30
35381;DHT22;21486;51.916;8.378;2023-03-14T14:27:11;8.00;71.50
35381;DHT22;21486;51.916;8.378;2023-03-14T14:29:38;8.00;70.50
35381;DHT22;21486;51.916;8.378;2023-03-14T14:34:45;7.80;73.10
35381;DHT22;21486;51.916;8.378;2023-03-14T14:37:24;7.70;74.10
35381;DHT22;21486;51.916;8.378;2023-03-14T14:39:53;7.60;71.20
35381;DHT22;21486;51.916;8.378;2023-03-14T14:42:21;7.50;73.20
35381;DHT22;21486;51.916;8.378;2023-03-14T14:44:48;7.60;72.20
35381;DHT22;21486;51.916;8.378;2023-03-14T14:47:19;7.50;72.50
35381;DHT22;21486;51.916;8.378;2023-03-14T14:49:47;7.70;68.60
35381;DHT22;21486;51.916;8.378;2023-03-14T14:52:19;7.40;66.50
35381;DHT22;21486;51.916;8.378;2023-03-14T14:54:53;7.40;65.10
35381;DHT22;21486;51.916;8.378;2023-03-14T14:57:26;7.10;64.60
35381;DHT22;21486;51.916;8.378;2023-03-14T14:59:56;6.90;63.60
35381;DHT22;21486;51.916;8.378;2023-03-14T15:02:51;7.00;65.40
35381;DHT22;21486;51.916;8.378;2023-03-14T15:05:22;7.10;65.80
35381;DHT22;21486;51.916;8.378;2023-03-14T15:07:48;6.90;66.20
35381;DHT22;21486;51.916;8.378;2023-03-14T15:10:23;7.00;65.50
35381;DHT22;21486;51.916;8.378;2023-03-14T15:12:48;7.00;65.90
35381;DHT22;21486;51.916;8.378;2023-03-14T15:15:15;6.90;65.00
35381;DHT22;21486;51.916;8.378;2023-03-14T15:17:41;7.00;63.90
35381;DHT22;21486;51.916;8.378;2023-03-14T15:20:12;7.10;61.50
35381;DHT22;21486;51.916;8.378;2023-03-14T15:22:39;7.10;62.70
35381;DHT22;21486;51.916;8.378;2023-03-14T15:25:05;7.30;62.60
35381;DHT22;21486;51.916;8.378;2023-03-14T15:27:31;7.40;62.20
35381;DHT22;21486;51.916;8.378;2023-03-14T15:29:59;7.50;62.90
35381;DHT22;21486;51.916;8.378;2023-03-14T15:32:25;7.50;60.60
35381;DHT22;21486;51.916;8.378;2023-03-14T15:34:55;7.40;61.10
35381;DHT22;21486;51.916;8.378;2023-03-14T15:37:21;7.30;60.80
35381;DHT22;21486;51.916;8.378;2023-03-14T15:39:47;7.50;61.50
35381;DHT22;21486;51.916;8.378;2023-03-14T15:42:13;7.50;58.70
35381;DHT22;21486;51.916;8.378;2023-03-14T15:44:38;7.40;58.80
35381;DHT22;21486;51.916;8.378;2023-03-14T15:47:05;7.50;59.50
35381;DHT22;21486;51.916;8.378;2023-03-14T15:49:32;7.70;59.60
35381;DHT22;21486;51.916;8.378;2023-03-14T15:51:58;7.80;58.70
35381;DHT22;21486;51.916;8.378;2023-03-14T15:54:24;7.90;59.90
35381;DHT22;21486;51.916;8.378;2023-03-14T15:56:54;7.80;59.70
35381;DHT22;21486;51.916;8.378;2023-03-14T15:59:20;7.90;59.30
35381;DHT22;21486;51.916;8.378;2023-03-14T16:01:46;7.70;59.30
35381;DHT22;21486;51.916;8.378;2023-03-14T16:04:13;7.70;58.00
35381;DHT22;21486;51.916;8.378;2023-03-14T16:06:39;7.50;56.80
35381;DHT22;21486;51.916;8.378;2023-03-14T16:09:04;7.40;58.50
35381;DHT22;21486;51.916;8.378;2023-03-14T16:11:30;7.50;58.80
35381;DHT22;21486;51.916;8.378;2023-03-14T16:13:56;7.40;58.90
35381;DHT22;21486;51.916;8.378;2023-03-14T16:16:21;7.50;59.30
35381;DHT22;21486;51.916;8.378;2023-03-14T16:18:47;7.50;58.10
35381;DHT22;21486;51.916;8.378;2023-03-14T16:21:17;7.60;58.20
35381;DHT22;21486;51.916;8.378;2023-03-14T16:23:43;7.50;59.00
35381;DHT22;21486;51.916;8.378;2023-03-14T16:26:12;7.50;58.90
35381;DHT22;21486;51.916;8.378;2023-03-14T16:28:38;7.50;59.00
35381;DHT22;21486;51.916;8.378;2023-03-14T16:31:06;7.40;60.60
35381;DHT22;21486;51.916;8.378;2023-03-14T16:33:33;7.30;60.90
35381;DHT22;21486;51.916;8.378;2023-03-14T16:36:00;7.00;59.90
35381;DHT22;21486;51.916;8.378;2023-03-14T16:38:26;7.00;60.20
35381;DHT22;21486;51.916;8.378;2023-03-14T16:41:00;7.00;59.10
35381;DHT22;21486;51.916;8.378;2023-03-14T16:43:26;7.00;60.40
35381;DHT22;21486;51.916;8.378;2023-03-14T16:45:52;7.00;58.80
35381;DHT22;21486;51.916;8.378;2023-03-14T16:48:17;7.00;60.10
35381;DHT22;21486;51.916;8.378;2023-03-14T16:50:43;7.00;61.20
35381;DHT22;21486;51.916;8.378;2023-03-14T16:53:08;6.90;60.80